Latest Coastal Weather Observations for Port Augusta

IDS60701

Issued at 1:01 pm CST Friday 26 May 2017 (issued every 10 minutes, with the page automatically refreshed every 10 minutes)

About coastal observations | Map of coastal stations | Coastal observations for SA | Marine services | Other Formats
Station Details ID: 018201 Name: PORT AUGUSTA AERO Lat: -32.51 Lon: 137.72 Height: 13.97 m
Data from the previous 72 hours. | See also: Recent months at Port Augusta
Date/Time
CST
Temp
°C
Wind Pressure Rain since
9am
mm
Weather Cloud Vis
km
Sea
Height
m
Swell
Dir  Spd
kts
Gust
kts
hPa Trend Height
m
Period
s
Dir
26/01:00pm 21.4 N 5 8 1019.7 - 0.0 - - 10 - - - -
26/12:30pm 21.3 WNW 5 8 1020.6 - 0.0 - - 10 - - - -
26/12:00pm 20.6 NNW 5 7 1021.2 - 0.0 - - 10 - - - -
26/11:30am 19.9 NNW 4 7 1021.7 - 0.0 - - 10 - - - -
26/11:00am 19.2 NNW 4 5 1022.2 - 0.0 - - 10 - - - -
26/10:30am 18.2 NNW 3 5 1022.5 - 0.0 - - 10 - - - -
26/10:00am 16.1 NW 3 4 1022.9 - 0.0 - - 10 - - - -
26/09:30am 14.4 NNW 4 5 1023.0 - 0.0 - - 10 - - - -
26/09:00am 12.6 NW 1 3 1023.1 - 0.0 - - 10 - - - -
26/08:30am 9.8 NW 3 4 1023.0 - 0.0 - - 10 - - - -
26/08:00am 7.5 WNW 4 4 1022.7 - 0.0 - - 10 - - - -
26/07:30am 5.1 WSW 4 6 1022.6 - 0.0 - - 10 - - - -
26/07:00am 4.3 WSW 5 5 1022.4 - 0.0 - - 10 - - - -
26/06:30am 4.8 NW 5 5 1022.2 - 0.0 - - 10 - - - -
26/06:00am 5.5 NNW 4 5 1022.0 - 0.0 - - 10 - - - -
26/05:30am 4.8 NW 4 6 1021.8 - 0.0 - - 10 - - - -
26/05:00am 5.7 WSW 4 4 1021.6 - 0.0 - - 10 - - - -
26/04:30am 5.6 CALM 0 0 1021.5 - 0.0 - - 10 - - - -
26/04:00am 5.7 WSW 3 4 1021.6 - 0.0 - - 10 - - - -
26/03:30am 6.2 W 3 3 1021.6 - 0.0 - - 10 - - - -
26/03:00am 6.5 WSW 4 4 1021.7 - 0.0 - - 10 - - - -
26/02:30am 6.5 CALM 0 0 1021.9 - 0.0 - - 10 - - - -
26/02:00am 7.0 WNW 1 2 1022.0 - 0.0 - - 10 - - - -
26/01:30am 7.3 WNW 3 4 1022.0 - 0.0 - - 10 - - - -
26/01:00am 7.7 WNW 4 4 1022.2 - 0.0 - - 10 - - - -
26/12:30am 8.6 CALM 0 0 1022.5 - 0.0 - - 10 - - - -
26/12:00am 8.5 SW 4 5 1022.5 - 0.0 - - 10 - - - -
 
Date/Time
CST
Temp
°C
Wind Pressure Rain since
9am
mm
Weather Cloud Vis
km
Sea
Height
m
Swell
Dir  Spd
kts
Gust
kts
hPa Trend Height
m
Period
s
Dir
25/11:30pm 8.7 SSW 6 7 1022.6 - 0.0 - - 10 - - - -
25/11:00pm 8.7 SW 7 7 1022.5 - 0.0 - - 10 - - - -
25/10:30pm 8.5 WSW 5 6 1022.7 - 0.0 - - 10 - - - -
25/10:00pm 9.4 WSW 2 5 1022.7 - 0.0 - - 10 - - - -
25/09:30pm 9.3 SW 4 6 1022.6 - 0.0 - - 10 - - - -
25/09:00pm 10.2 S 4 5 1022.5 - 0.0 - - 10 - - - -
25/08:30pm 11.3 SSE 4 5 1022.4 - 0.0 - - 10 - - - -
25/08:00pm 10.9 S 4 5 1022.3 - 0.0 - - 10 - - - -
25/07:30pm 11.4 W 5 7 1022.0 - 0.0 - - 10 - - - -
25/07:00pm 14.1 CALM 0 3 1021.9 - 0.0 - - 10 - - - -
25/06:30pm 14.2 NNE 6 7 1021.6 - 0.0 - - 10 - - - -
25/06:00pm 14.8 NNE 6 7 1021.4 - 0.0 - - 10 - - - -
25/05:30pm 15.9 NE 7 8 1021.1 - 0.0 - - 10 - - - -
25/05:00pm 19.5 N 3 5 1021.0 - 0.0 - - 10 - - - -
25/04:30pm 20.7 N 6 9 1020.9 - 0.0 - - 10 - - - -
25/04:00pm 21.5 N 7 9 1020.9 - 0.0 - - 10 - - - -
25/03:30pm 21.6 N 7 10 1021.0 - 0.0 - - 10 - - - -
25/03:00pm 21.7 NNE 7 10 1021.1 - 0.0 - - 10 - - - -
25/02:30pm 21.6 N 8 10 1021.3 - 0.0 - Partly cloudy 10 - - - -
25/02:00pm 21.6 NNW 5 8 1021.4 - 0.0 - - 10 - - - -
25/01:30pm 21.6 WNW 5 10 1021.8 - 0.0 - - 10 - - - -
25/01:00pm 21.2 NNW 7 11 1022.4 - 0.0 - - 10 - - - -
25/12:30pm 20.9 NNW 6 9 1022.9 - 0.0 - - 10 - - - -
25/12:00pm 20.0 NW 6 9 1023.4 - 0.0 - - 10 - - - -
25/11:30am 19.1 NNW 6 8 1023.7 - 0.0 - - 10 - - - -
25/11:00am 18.3 NNW 5 8 1023.9 - 0.0 - - 10 - - - -
25/10:30am 17.0 NNW 5 7 1024.1 - 0.0 - - 10 - - - -
25/10:00am 16.3 NW 5 6 1024.2 - 0.0 - - 10 - - - -
25/09:30am 14.2 WNW 5 7 1024.2 - 0.0 - - 10 - - - -
25/09:00am 12.7 W 4 5 1023.8 - 0.0 - - 10 - - - -
25/08:30am 10.5 W 5 5 1023.7 - 0.0 - - 10 - - - -
25/08:00am 7.9 W 5 6 1023.7 - 0.0 - - 10 - - - -
25/07:30am 5.7 W 3 4 1023.3 - 0.0 - - 10 - - - -
25/07:00am 6.5 WSW 3 4 1023.2 - 0.0 - - 10 - - - -
25/06:30am 6.3 WSW 5 6 1023.1 - 0.0 - - 10 - - - -
25/06:00am 6.3 CALM 0 0 1022.9 - 0.0 - - 10 - - - -
25/05:55am 6.3 CALM 0 0 1022.9 - 0.0 - - 10 - - - -
25/05:30am 7.2 NNW 2 4 1022.6 - 0.0 - - 4 - - - -
25/05:29am 7.1 NNW 3 4 1022.6 - 0.0 - - 5 - - - -
25/05:00am 8.2 NNW 4 5 1022.5 - 0.0 - - 10 - - - -
25/04:30am 7.3 NW 3 5 1022.4 - 0.0 - Partly cloudy 10 - - - -
25/04:00am 7.9 SW 4 4 1022.4 - 0.0 - Partly cloudy 10 - - - -
25/03:30am 8.1 SW 3 5 1022.4 - 0.0 - Partly cloudy 10 - - - -
25/03:00am 9.0 CALM 0 0 1022.5 - 0.0 - Partly cloudy 10 - - - -
25/02:30am 9.7 W 3 4 1022.5 - 0.0 - Cloudy 10 - - - -
25/02:00am 9.6 WSW 3 4 1022.6 - 0.0 - Cloudy 10 - - - -
25/01:30am 9.5 CALM 0 3 1022.6 - 0.0 - Cloudy 10 - - - -
25/01:00am 9.3 NW 3 4 1022.6 - 0.0 - Cloudy 10 - - - -
25/12:30am 8.8 NW 3 4 1022.8 - 0.0 - Cloudy 10 - - - -
25/12:00am 7.9 W 3 4 1022.7 - 0.0 - Mostly clear 10 - - - -
 
Date/Time
CST
Temp
°C
Wind Pressure Rain since
9am
mm
Weather Cloud Vis
km
Sea
Height
m
Swell
Dir  Spd
kts
Gust
kts
hPa Trend Height
m
Period
s
Dir
24/11:30pm 8.3 SW 3 4 1022.8 - 0.0 - - 10 - - - -
24/11:00pm 8.5 WSW 5 6 1022.7 - 0.0 - - 10 - - - -
24/10:30pm 8.7 WSW 3 5 1022.7 - 0.0 - - 10 - - - -
24/10:00pm 9.2 SW 3 4 1022.7 - 0.0 - - 10 - - - -
24/09:30pm 9.3 SW 4 5 1022.8 - 0.0 - - 10 - - - -
24/09:00pm 9.7 SW 5 6 1022.8 - 0.0 - - 10 - - - -
24/08:30pm 10.0 SSW 3 5 1022.7 - 0.0 - - 10 - - - -
24/08:00pm 10.6 S 3 4 1022.7 - 0.0 - - 10 - - - -
24/07:30pm 11.1 SSE 3 4 1022.6 - 0.0 - - 10 - - - -
24/07:00pm 13.1 ESE 4 4 1022.2 - 0.0 - - 10 - - - -
24/06:30pm 13.1 SE 5 7 1021.9 - 0.0 - - 10 - - - -
24/06:00pm 16.2 SE 7 9 1021.6 - 0.0 - - 10 - - - -
24/05:30pm 17.0 SE 5 6 1021.6 - 0.0 - - 10 - - - -
24/05:00pm 17.8 ESE 5 6 1021.7 - 0.0 - - 10 - - - -
24/04:30pm 19.2 SE 4 5 1021.6 - 0.0 - - 10 - - - -
24/04:00pm 19.3 S 5 7 1021.6 - 0.0 - - 10 - - - -
24/03:30pm 19.8 SSW 5 7 1021.5 - 0.0 - Partly cloudy 10 - - - -
24/03:00pm 20.3 SSW 6 8 1021.6 - 0.0 - Mostly clear 10 - - - -
24/02:30pm 19.8 SSW 10 13 1021.6 - 0.0 - Partly cloudy 10 - - - -
24/02:00pm 20.3 SW 7 11 1021.6 - 0.0 - Partly cloudy 10 - - - -
24/01:30pm 19.9 SW 7 10 1021.6 - 0.0 - Partly cloudy 10 - - - -
24/01:00pm 20.0 SW 8 12 1021.9 - 0.0 - - 10 - - - -
24/12:30pm 19.7 SW 11 14 1022.2 - 0.0 - - 10 - - - -
24/12:00pm 19.1 WSW 7 10 1022.6 - 0.0 - - 10 - - - -
24/11:30am 17.7 WSW 5 7 1023.3 - 0.0 - - 10 - - - -
24/11:00am 16.9 NW 5 7 1023.8 - 0.0 - - 10 - - - -
24/10:30am 16.0 N 6 8 1024.1 - 0.0 - Partly cloudy 10 - - - -
24/10:00am 14.5 N 6 8 1024.3 - 0.0 - Partly cloudy 10 - - - -
24/09:30am 12.7 N 7 8 1024.4 - 0.0 - Partly cloudy 10 - - - -
24/09:00am 10.7 NNE 6 7 1024.2 - 0.0 - Mostly cloudy 10 - - - -
24/08:30am 9.3 NE 5 6 1024.0 - 0.0 - Partly cloudy 10 - - - -
24/08:00am 8.9 W 1 5 1023.6 - 0.0 - Partly cloudy 10 - - - -
24/07:30am 8.9 WNW 7 8 1023.2 - 0.0 - Partly cloudy 10 - - - -
24/07:00am 9.0 WNW 7 8 1022.9 - 0.0 - Partly cloudy 10 - - - -
24/06:30am 9.7 WNW 8 9 1022.9 - 0.0 - Partly cloudy 10 - - - -
24/06:09am 9.0 NW 7 8 1022.6 - 0.0 - Partly cloudy 10 - - - -
24/06:00am 9.4 NW 8 9 1022.6 - 0.0 - Cloudy 10 - - - -
24/05:30am 9.3 N 5 6 1022.4 - 0.0 - Cloudy 10 - - - -
24/05:13am 9.6 NNW 8 10 1022.2 - 0.0 - Partly cloudy 10 - - - -
24/05:00am 9.2 NNW 9 11 1022.0 - 0.0 - Partly cloudy 10 - - - -
24/04:30am 9.3 NNW 7 9 1021.7 - 0.0 - Partly cloudy 10 - - - -
24/04:00am 9.6 NNW 9 12 1021.6 - 0.0 - Partly cloudy 10 - - - -
24/03:30am 10.1 N 8 13 1021.5 - 0.0 - - 10 - - - -
24/03:00am 10.5 N 9 11 1021.4 - 0.0 - Mostly clear 10 - - - -
24/02:30am 10.3 NE 8 10 1021.5 - 0.0 - - 10 - - - -
24/02:00am 10.1 NNW 7 8 1021.3 - 0.0 - - 10 - - - -
24/01:30am 10.0 WNW 6 8 1021.2 - 0.0 - - 10 - - - -
24/01:00am 10.0 W 10 10 1021.1 - 0.0 - - 10 - - - -
24/12:30am 9.6 W 8 9 1021.2 - 0.0 - - 10 - - - -
24/12:00am 10.5 W 8 9 1021.2 - 0.0 - - 10 - - - -
 
Date/Time
CST
Temp
°C
Wind Pressure Rain since
9am
mm
Weather Cloud Vis
km
Sea
Height
m
Swell
Dir  Spd
kts
Gust
kts
hPa Trend Height
m
Period
s
Dir
23/11:30pm 10.3 W 6 7 1021.4 - 0.0 - - 10 - - - -
23/11:00pm 11.4 WSW 8 9 1021.1 - 0.0 - - 10 - - - -
23/10:30pm 12.0 SW 10 12 1021.1 - 0.0 - - 10 - - - -
23/10:00pm 9.8 WSW 7 9 1021.0 - 0.0 - - 10 - - - -
23/09:30pm 9.3 WSW 5 7 1020.9 - 0.0 - - 10 - - - -
23/09:00pm 10.4 SW 3 4 1020.7 - 0.0 - Partly cloudy 10 - - - -
23/08:30pm 10.0 SW 5 6 1020.3 - 0.0 - Partly cloudy 10 - - - -
23/08:00pm 11.3 WSW 1 4 1019.7 - 0.0 - Partly cloudy 10 - - - -
23/07:30pm 12.7 W 3 4 1019.5 - 0.0 - Cloudy 10 - - - -
23/07:00pm 11.7 SW 4 5 1019.4 - 0.0 - - 10 - - - -
23/06:30pm 12.7 SW 5 6 1019.1 - 0.0 - - 10 - - - -
23/06:00pm 13.8 SW 7 10 1018.8 - 0.0 - - 10 - - - -
23/05:30pm 16.3 WSW 6 7 1018.4 - 0.0 - Cloudy 10 - - - -
23/05:00pm 18.3 W 7 9 1018.0 - 0.0 - Cloudy 10 - - - -
23/04:30pm 18.5 W 9 13 1017.6 - 0.0 - Partly cloudy 10 - - - -
23/04:00pm 18.7 W 8 11 1017.4 - 0.0 - Partly cloudy 10 - - - -
23/03:30pm 19.8 WSW 8 11 1017.3 - 0.0 - Partly cloudy 10 - - - -
23/03:00pm 18.7 WSW 8 10 1017.5 - 0.0 - Mostly cloudy 10 - - - -
23/02:30pm 19.9 W 12 15 1017.4 - 0.0 - Partly cloudy 10 - - - -
23/02:00pm 20.0 WSW 9 14 1017.2 - 0.0 - Partly cloudy 10 - - - -
23/01:30pm 19.7 WSW 11 15 1017.3 - 0.0 - Partly cloudy 10 - - - -

Other Formats:

Comma delimited format used in spreadsheet applications
http://www.bom.gov.au/fwo/IDS60701/IDS60701.95666.axf

JavaScript Object Notation format (JSON) in row-major order
http://www.bom.gov.au/fwo/IDS60701/IDS60701.95666.json